createdAt,value
2023-02-21T00:02:19.009Z,6.20
2023-02-21T00:05:04.725Z,6.10
2023-02-21T00:07:51.402Z,6.00
2023-02-21T00:10:36.915Z,5.90
2023-02-21T00:13:22.342Z,5.80
2023-02-21T00:16:07.914Z,5.70
2023-02-21T00:18:56.892Z,5.60
2023-02-21T00:21:43.295Z,5.50
2023-02-21T00:24:35.908Z,5.50
2023-02-21T00:27:21.711Z,5.50
2023-02-21T00:30:08.281Z,5.50
2023-02-21T00:32:53.717Z,5.60
2023-02-21T00:35:40.366Z,5.50
2023-02-21T00:38:26.703Z,5.50
2023-02-21T00:41:12.441Z,5.50
2023-02-21T00:43:58.048Z,5.50
2023-02-21T00:46:43.954Z,5.50
2023-02-21T00:49:29.348Z,5.60
2023-02-21T00:52:14.858Z,5.60
2023-02-21T00:55:00.318Z,5.60
2023-02-21T00:57:45.824Z,5.60
2023-02-21T01:00:38.500Z,5.60
2023-02-21T01:03:24.564Z,5.60
2023-02-21T01:06:10.345Z,5.50
2023-02-21T01:08:55.722Z,5.50
2023-02-21T01:11:41.666Z,5.40
2023-02-21T01:14:28.403Z,5.40
2023-02-21T01:17:14.043Z,5.40
2023-02-21T01:20:00.802Z,5.30
2023-02-21T01:22:47.254Z,5.30
2023-02-21T01:25:33.798Z,5.30
2023-02-21T01:28:19.100Z,5.30
2023-02-21T01:31:04.499Z,5.30
2023-02-21T01:33:57.954Z,5.20
2023-02-21T01:36:43.958Z,5.30
2023-02-21T01:39:29.681Z,5.30
2023-02-21T01:42:15.095Z,5.30
2023-02-21T01:45:02.552Z,5.20
2023-02-21T01:47:48.604Z,5.10
2023-02-21T01:50:41.952Z,5.10
2023-02-21T01:53:33.723Z,5.10
2023-02-21T01:56:19.741Z,5.00
2023-02-21T01:59:07.246Z,5.10
2023-02-21T02:02:01.913Z,5.10
2023-02-21T02:04:47.332Z,5.10
2023-02-21T02:07:32.654Z,5.00
2023-02-21T02:10:18.036Z,5.10
2023-02-21T02:13:06.284Z,5.10
2023-02-21T02:15:58.438Z,5.20
2023-02-21T02:18:36.945Z,5.10
2023-02-21T02:21:36.011Z,5.10
2023-02-21T02:24:08.772Z,5.10
2023-02-21T02:27:02.158Z,5.10
2023-02-21T02:29:50.654Z,5.10
2023-02-21T02:32:41.717Z,5.10
2023-02-21T02:35:17.084Z,5.10
2023-02-21T02:38:04.055Z,5.00
2023-02-21T02:40:56.727Z,4.80
2023-02-21T02:43:50.951Z,4.70
2023-02-21T02:46:25.525Z,4.60
2023-02-21T02:49:10.189Z,4.50
2023-02-21T02:51:37.331Z,4.50
2023-02-21T02:54:04.502Z,4.50
2023-02-21T02:56:31.243Z,4.50
2023-02-21T02:59:06.555Z,4.50
2023-02-21T03:01:48.372Z,4.50
2023-02-21T03:04:55.980Z,4.50
2023-02-21T03:07:45.061Z,4.50
2023-02-21T03:10:23.981Z,4.40
2023-02-21T03:13:12.203Z,4.40
2023-02-21T03:15:50.952Z,4.40
2023-02-21T03:18:32.549Z,4.40
2023-02-21T03:21:02.799Z,4.40
2023-02-21T03:23:33.002Z,4.50
2023-02-21T03:26:04.846Z,4.40
2023-02-21T03:28:33.815Z,4.40
2023-02-21T03:31:02.389Z,4.40
2023-02-21T03:33:29.158Z,4.30
2023-02-21T03:35:58.611Z,4.20
2023-02-21T03:38:28.766Z,4.20
2023-02-21T03:40:55.503Z,4.20
2023-02-21T03:43:22.424Z,4.20
2023-02-21T03:45:49.208Z,4.10
2023-02-21T03:48:26.169Z,4.10
2023-02-21T03:50:58.010Z,4.10
2023-02-21T03:53:24.628Z,4.20
2023-02-21T03:55:51.528Z,4.20
2023-02-21T03:58:18.186Z,4.10
2023-02-21T04:00:44.917Z,4.00
2023-02-21T04:03:11.974Z,4.00
2023-02-21T04:05:38.619Z,4.00
2023-02-21T04:08:06.089Z,4.00
2023-02-21T04:10:37.841Z,4.00
2023-02-21T04:13:04.936Z,4.00
2023-02-21T04:15:31.579Z,4.00
2023-02-21T04:17:58.252Z,4.00
2023-02-21T04:20:24.941Z,4.00
2023-02-21T04:23:02.694Z,3.90
2023-02-21T04:25:30.355Z,3.90
2023-02-21T04:27:57.037Z,3.90
2023-02-21T04:30:24.748Z,3.80
2023-02-21T04:32:51.561Z,3.80
2023-02-21T04:35:18.174Z,3.70
2023-02-21T04:37:45.117Z,3.70
2023-02-21T04:40:11.897Z,3.70
2023-02-21T04:42:38.575Z,3.70
2023-02-21T04:45:05.454Z,3.60
2023-02-21T04:47:32.067Z,3.50
2023-02-21T04:49:58.779Z,3.50
2023-02-21T04:52:25.537Z,3.50
2023-02-21T04:54:52.238Z,3.40
2023-02-21T04:57:18.870Z,3.40
2023-02-21T04:59:45.681Z,3.40
2023-02-21T05:02:12.306Z,3.40
2023-02-21T05:04:39.165Z,3.40
2023-02-21T05:07:07.310Z,3.40
2023-02-21T05:09:34.032Z,3.30
2023-02-21T05:12:00.634Z,3.30
2023-02-21T05:14:27.271Z,3.20
2023-02-21T05:16:54.211Z,3.20
2023-02-21T05:19:27.166Z,3.20
2023-02-21T05:21:59.733Z,3.20
2023-02-21T05:24:28.518Z,3.20
2023-02-21T05:26:55.730Z,3.20
2023-02-21T05:29:22.376Z,3.30
2023-02-21T05:31:49.052Z,3.30
2023-02-21T05:34:17.508Z,3.30
2023-02-21T05:36:44.232Z,3.30
2023-02-21T05:39:11.162Z,3.20
2023-02-21T05:41:37.827Z,3.30
2023-02-21T05:44:05.145Z,3.30
2023-02-21T05:46:34.394Z,3.30
2023-02-21T05:49:03.218Z,3.30
2023-02-21T05:51:38.756Z,3.30
2023-02-21T05:54:07.282Z,3.30
2023-02-21T05:56:41.592Z,3.30
2023-02-21T05:59:09.371Z,3.30
2023-02-21T06:01:36.414Z,3.30
2023-02-21T06:04:03.384Z,3.30
2023-02-21T06:06:29.979Z,3.30
2023-02-21T06:08:56.613Z,3.30
2023-02-21T06:11:28.668Z,3.20
2023-02-21T06:13:57.511Z,3.20
2023-02-21T06:16:24.990Z,3.20
2023-02-21T06:18:56.888Z,3.20
2023-02-21T06:21:23.609Z,3.30
2023-02-21T06:23:50.353Z,3.30
2023-02-21T06:26:18.041Z,3.30
2023-02-21T06:28:44.861Z,3.30
2023-02-21T06:31:11.583Z,3.30
2023-02-21T06:33:38.358Z,3.30
2023-02-21T06:36:06.557Z,3.30
2023-02-21T06:38:34.056Z,3.30
2023-02-21T06:41:01.137Z,3.20
2023-02-21T06:43:27.769Z,3.30
2023-02-21T06:45:54.507Z,3.30
2023-02-21T06:48:21.264Z,3.30
2023-02-21T06:50:47.920Z,3.40
2023-02-21T06:53:15.192Z,3.50
2023-02-21T06:55:41.941Z,3.60
2023-02-21T06:58:08.578Z,3.80
2023-02-21T07:00:35.202Z,3.90
2023-02-21T07:03:01.998Z,3.70
2023-02-21T07:05:29.192Z,4.30
2023-02-21T07:07:55.786Z,4.50
2023-02-21T07:10:22.406Z,4.60
2023-02-21T07:12:49.024Z,4.60
2023-02-21T07:15:15.659Z,4.50
2023-02-21T07:17:42.263Z,4.40
2023-02-21T07:20:09.427Z,4.30
2023-02-21T07:22:36.109Z,4.30
2023-02-21T07:25:03.516Z,4.30
2023-02-21T07:27:30.240Z,4.40
2023-02-21T07:29:56.871Z,4.60
2023-02-21T07:34:49.903Z,4.80
2023-02-21T07:37:16.531Z,4.90
2023-02-21T07:39:43.177Z,5.10
2023-02-21T07:42:10.496Z,5.20
2023-02-21T07:44:37.745Z,5.30
2023-02-21T07:47:04.392Z,5.40
2023-02-21T07:49:31.011Z,5.50
2023-02-21T07:51:57.609Z,5.60
2023-02-21T07:54:24.342Z,5.80
2023-02-21T07:56:51.049Z,6.00
2023-02-21T07:59:17.722Z,6.10
2023-02-21T08:01:44.369Z,6.40
2023-02-21T08:04:11.091Z,6.60
2023-02-21T08:06:38.293Z,6.80
2023-02-21T08:09:06.610Z,7.10
2023-02-21T08:11:36.562Z,7.30
2023-02-21T08:14:04.435Z,7.40
2023-02-21T08:16:33.101Z,7.60
2023-02-21T08:19:01.094Z,7.80
2023-02-21T08:21:27.735Z,7.90
2023-02-21T08:23:55.402Z,8.10
2023-02-21T08:26:22.903Z,8.20
2023-02-21T08:28:49.528Z,8.40
2023-02-21T08:31:16.430Z,8.60
2023-02-21T08:33:44.049Z,9.20
2023-02-21T08:36:10.740Z,10.10
2023-02-21T08:38:38.274Z,11.00
2023-02-21T08:41:06.083Z,12.20
2023-02-21T08:43:32.953Z,13.30
2023-02-21T08:45:59.586Z,14.70
2023-02-21T08:48:26.256Z,15.80
2023-02-21T08:50:53.715Z,16.80
2023-02-21T08:53:20.361Z,17.40
2023-02-21T08:55:47.064Z,17.80
2023-02-21T08:58:13.725Z,18.40
2023-02-21T09:00:42.093Z,18.90
2023-02-21T09:03:08.789Z,19.70
2023-02-21T09:05:35.465Z,21.00
2023-02-21T09:08:02.246Z,21.80
2023-02-21T09:10:33.865Z,22.00
2023-02-21T09:13:01.586Z,22.40
2023-02-21T09:15:28.322Z,23.10
2023-02-21T09:17:55.148Z,23.90
2023-02-21T09:20:24.622Z,24.60
2023-02-21T09:22:51.530Z,25.10
2023-02-21T09:25:21.287Z,25.50
2023-02-21T09:27:47.903Z,25.50
2023-02-21T09:30:24.478Z,26.10
2023-02-21T09:32:51.741Z,26.20
2023-02-21T09:35:18.552Z,26.40
2023-02-21T09:37:46.339Z,26.50
2023-02-21T09:40:49.656Z,26.70
2023-02-21T09:43:25.633Z,27.40
2023-02-21T09:45:55.826Z,28.20
2023-02-21T09:48:23.962Z,28.40
2023-02-21T09:50:55.000Z,28.60
2023-02-21T09:53:28.968Z,29.60
2023-02-21T09:56:06.418Z,30.00
2023-02-21T09:58:34.511Z,30.10
2023-02-21T10:01:08.885Z,29.70
2023-02-21T10:03:55.228Z,29.20
2023-02-21T10:07:08.979Z,28.20
2023-02-21T10:09:42.625Z,27.90
2023-02-21T10:12:23.449Z,28.10
2023-02-21T10:15:15.212Z,29.00
2023-02-21T10:18:06.762Z,29.90
2023-02-21T10:20:38.888Z,30.40
2023-02-21T10:23:15.726Z,30.60
2023-02-21T10:25:46.606Z,30.90
2023-02-21T10:28:20.658Z,31.60
2023-02-21T10:30:49.696Z,32.40
2023-02-21T10:33:16.678Z,33.20
2023-02-21T10:35:43.460Z,33.80
2023-02-21T10:38:13.913Z,34.10
2023-02-21T10:40:44.108Z,35.00
2023-02-21T10:43:34.192Z,35.90
2023-02-21T10:46:28.330Z,36.30
2023-02-21T10:49:13.071Z,36.90
2023-02-21T10:51:39.764Z,37.30
2023-02-21T10:54:20.656Z,36.70
2023-02-21T10:56:49.206Z,36.70
2023-02-21T10:59:26.881Z,37.00
2023-02-21T11:01:54.932Z,37.00
2023-02-21T11:04:21.534Z,38.20
2023-02-21T11:06:53.515Z,38.40
2023-02-21T11:09:47.897Z,38.90
2023-02-21T11:12:22.264Z,38.70
2023-02-21T11:14:51.649Z,39.50
2023-02-21T11:17:23.308Z,39.20
2023-02-21T11:19:57.978Z,39.00
2023-02-21T11:22:34.797Z,38.40
2023-02-21T11:25:28.876Z,38.60
2023-02-21T11:28:09.277Z,37.70
2023-02-21T11:30:39.342Z,38.00
2023-02-21T11:33:07.951Z,38.00
2023-02-21T11:35:39.881Z,38.30
2023-02-21T11:38:28.640Z,38.70
2023-02-21T11:40:55.888Z,38.90
2023-02-21T11:43:50.561Z,39.20
2023-02-21T11:46:38.164Z,39.80
2023-02-21T11:49:13.638Z,39.80
2023-02-21T11:51:50.965Z,39.40
2023-02-21T11:54:23.895Z,39.30
2023-02-21T11:56:50.456Z,38.60
2023-02-21T11:59:44.545Z,37.80
2023-02-21T12:02:26.105Z,37.70
2023-02-21T12:05:17.404Z,36.80
2023-02-21T12:08:14.668Z,36.90
2023-02-21T12:10:49.226Z,36.90
2023-02-21T12:13:24.324Z,37.00
2023-02-21T12:16:14.216Z,37.40
2023-02-21T12:19:21.603Z,36.70
2023-02-21T12:22:03.351Z,36.60
2023-02-21T12:24:37.792Z,37.00
2023-02-21T12:27:27.189Z,37.70
2023-02-21T12:30:27.870Z,38.10
2023-02-21T12:33:19.479Z,38.40
2023-02-21T12:36:17.262Z,38.30
2023-02-21T12:39:13.424Z,37.40
2023-02-21T12:41:52.531Z,36.60
2023-02-21T12:44:20.908Z,37.00
2023-02-21T12:47:00.658Z,37.00
2023-02-21T12:49:50.033Z,36.60
2023-02-21T12:52:25.670Z,36.00
2023-02-21T12:55:14.749Z,36.10
2023-02-21T12:58:00.330Z,36.60
2023-02-21T13:00:35.636Z,36.80
2023-02-21T13:03:30.428Z,37.00
2023-02-21T13:06:18.258Z,37.00
2023-02-21T13:08:54.325Z,37.10
2023-02-21T13:11:33.288Z,36.90
2023-02-21T13:14:00.719Z,35.40
2023-02-21T13:16:27.492Z,34.40
2023-02-21T13:19:02.677Z,34.50
2023-02-21T13:21:49.679Z,35.00
2023-02-21T13:24:39.833Z,35.60
2023-02-21T13:27:32.756Z,35.80
2023-02-21T13:30:38.363Z,35.80
2023-02-21T13:33:06.029Z,36.00
2023-02-21T13:35:38.245Z,36.00
2023-02-21T13:38:11.716Z,35.20
2023-02-21T13:40:54.510Z,34.70
2023-02-21T13:43:33.106Z,34.60
2023-02-21T13:46:44.720Z,34.70
2023-02-21T13:49:47.695Z,34.60
2023-02-21T13:52:20.147Z,34.90
2023-02-21T13:55:09.777Z,34.40
2023-02-21T13:57:39.916Z,34.20
2023-02-21T14:00:21.706Z,33.80
2023-02-21T14:03:07.020Z,33.20
2023-02-21T14:05:52.074Z,32.40
2023-02-21T14:08:27.541Z,31.90
2023-02-21T14:11:05.187Z,31.70
2023-02-21T14:13:48.722Z,31.40
2023-02-21T14:16:18.288Z,31.00
2023-02-21T14:19:06.803Z,30.40
2023-02-21T14:21:39.713Z,29.80
2023-02-21T14:24:11.624Z,29.10
2023-02-21T14:26:40.958Z,28.40
2023-02-21T14:29:07.560Z,27.90
2023-02-21T14:31:53.230Z,27.40
2023-02-21T14:34:47.439Z,26.70
2023-02-21T14:37:35.339Z,26.30
2023-02-21T14:40:10.897Z,25.70
2023-02-21T14:43:05.171Z,25.20
2023-02-21T14:46:02.940Z,24.70
2023-02-21T14:48:51.142Z,24.20
2023-02-21T14:51:44.102Z,23.60
2023-02-21T14:54:22.476Z,23.00
2023-02-21T14:56:56.256Z,22.60
2023-02-21T14:59:36.285Z,22.30
2023-02-21T15:02:31.583Z,22.00
2023-02-21T15:05:04.560Z,21.60
2023-02-21T15:07:48.881Z,21.40
2023-02-21T15:10:23.688Z,21.20
2023-02-21T15:12:53.744Z,21.00
2023-02-21T15:15:36.526Z,21.30
2023-02-21T15:18:26.152Z,20.80
2023-02-21T15:21:08.011Z,21.10
2023-02-21T15:23:35.382Z,21.90
2023-02-21T15:26:27.151Z,22.90
2023-02-21T15:29:10.264Z,23.70
2023-02-21T15:31:48.203Z,24.20
2023-02-21T15:34:29.689Z,24.50
2023-02-21T15:37:20.050Z,24.70
2023-02-21T15:39:56.229Z,24.60
2023-02-21T15:42:24.047Z,24.50
2023-02-21T15:45:03.252Z,24.60
2023-02-21T15:47:32.670Z,24.60
2023-02-21T15:50:13.195Z,24.60
2023-02-21T15:52:42.531Z,24.60
2023-02-21T15:55:22.928Z,24.50
2023-02-21T15:58:08.131Z,24.10
2023-02-21T16:00:44.109Z,23.40
2023-02-21T16:03:26.410Z,22.80
2023-02-21T16:05:55.557Z,22.20
2023-02-21T16:08:22.556Z,21.60
2023-02-21T16:10:49.369Z,21.20
2023-02-21T16:13:16.118Z,20.80
2023-02-21T16:15:43.386Z,20.40
2023-02-21T16:18:16.533Z,20.00
2023-02-21T16:20:44.524Z,19.70
2023-02-21T16:23:20.023Z,19.30
2023-02-21T16:25:58.879Z,19.00
2023-02-21T16:28:26.016Z,18.60
2023-02-21T16:30:53.360Z,18.30
2023-02-21T16:33:20.043Z,18.00
2023-02-21T16:35:46.637Z,17.70
2023-02-21T16:38:19.262Z,17.50
2023-02-21T16:40:47.060Z,17.20
2023-02-21T16:43:23.531Z,17.00
2023-02-21T16:45:52.474Z,16.80
2023-02-21T16:48:23.686Z,16.40
2023-02-21T16:50:51.479Z,16.20
2023-02-21T16:53:19.356Z,15.80
2023-02-21T16:55:46.349Z,15.50
2023-02-21T16:58:22.617Z,15.30
2023-02-21T17:00:49.628Z,15.10
2023-02-21T17:03:16.230Z,14.80
2023-02-21T17:05:42.925Z,14.60
2023-02-21T17:08:09.805Z,14.30
2023-02-21T17:10:36.609Z,14.20
2023-02-21T17:13:03.713Z,13.90
2023-02-21T17:15:32.079Z,13.80
2023-02-21T17:17:59.741Z,13.60
2023-02-21T17:20:27.023Z,13.40
2023-02-21T17:22:54.321Z,13.20
2023-02-21T17:25:22.888Z,13.10
2023-02-21T17:27:49.745Z,12.80
2023-02-21T17:30:19.367Z,12.60
2023-02-21T17:32:47.049Z,12.40
2023-02-21T17:35:15.353Z,12.30
2023-02-21T17:37:47.471Z,12.20
2023-02-21T17:40:14.501Z,12.10
2023-02-21T17:42:41.110Z,12.00
2023-02-21T17:45:08.191Z,11.70
2023-02-21T17:47:35.702Z,11.60
2023-02-21T17:50:04.538Z,11.50
2023-02-21T17:52:31.947Z,11.40
2023-02-21T17:54:58.655Z,11.40
2023-02-21T17:57:25.309Z,11.30
2023-02-21T17:59:51.903Z,11.10
2023-02-21T18:02:18.975Z,11.00
2023-02-21T18:04:48.630Z,10.90
2023-02-21T18:07:15.346Z,10.90
2023-02-21T18:09:41.995Z,10.80
2023-02-21T18:12:08.585Z,10.70
2023-02-21T18:14:35.194Z,10.70
2023-02-21T18:17:02.576Z,10.50
2023-02-21T18:19:29.597Z,10.50
2023-02-21T18:21:56.271Z,10.50
2023-02-21T18:24:23.090Z,10.40
2023-02-21T18:26:49.956Z,10.30
2023-02-21T18:29:17.148Z,10.30
2023-02-21T18:31:43.875Z,10.30
2023-02-21T18:34:10.595Z,10.30
2023-02-21T18:36:40.882Z,10.20
2023-02-21T18:39:07.613Z,10.10
2023-02-21T18:41:34.827Z,9.90
2023-02-21T18:44:01.473Z,9.80
2023-02-21T18:46:28.122Z,9.80
2023-02-21T18:48:54.765Z,9.70
2023-02-21T18:51:21.475Z,9.70
2023-02-21T18:53:48.964Z,9.60
2023-02-21T18:56:19.236Z,9.50
2023-02-21T18:58:47.192Z,9.40
2023-02-21T19:01:16.549Z,9.10
2023-02-21T19:03:43.362Z,9.00
2023-02-21T19:06:12.558Z,8.90
2023-02-21T19:08:39.286Z,8.80
2023-02-21T19:11:05.986Z,8.80
2023-02-21T19:13:32.715Z,8.70
2023-02-21T19:16:00.419Z,8.80
2023-02-21T19:18:28.104Z,8.80
2023-02-21T19:20:55.015Z,8.70
2023-02-21T19:23:21.688Z,8.60
2023-02-21T19:25:48.355Z,8.50
2023-02-21T19:28:15.028Z,8.50
2023-02-21T19:30:41.749Z,8.50
2023-02-21T19:33:08.634Z,8.80
2023-02-21T19:35:35.704Z,8.60
2023-02-21T19:38:05.579Z,8.50
2023-02-21T19:40:33.012Z,8.50
2023-02-21T19:42:59.725Z,8.50
2023-02-21T19:45:26.408Z,8.50
2023-02-21T19:47:53.079Z,8.40
2023-02-21T19:50:20.043Z,8.40
2023-02-21T19:52:52.782Z,8.40
2023-02-21T19:55:19.470Z,8.30
2023-02-21T19:57:46.176Z,8.20
2023-02-21T20:00:13.212Z,8.10
2023-02-21T20:02:39.906Z,8.10
2023-02-21T20:05:07.058Z,8.10
2023-02-21T20:07:33.687Z,8.00
2023-02-21T20:10:00.470Z,8.00
2023-02-21T20:12:27.280Z,7.80
2023-02-21T20:14:55.985Z,7.80
2023-02-21T20:17:22.623Z,7.70
2023-02-21T20:19:49.782Z,7.60
2023-02-21T20:22:16.434Z,7.60
2023-02-21T20:24:45.771Z,7.50
2023-02-21T20:27:14.561Z,7.50
2023-02-21T20:29:41.350Z,7.50
2023-02-21T20:32:08.348Z,7.60
2023-02-21T20:34:38.229Z,7.50
2023-02-21T20:37:04.888Z,7.50
2023-02-21T20:39:31.675Z,7.40
2023-02-21T20:42:00.462Z,7.30
2023-02-21T20:44:33.991Z,7.20
2023-02-21T20:47:01.347Z,7.30
2023-02-21T20:49:28.081Z,7.20
2023-02-21T20:51:54.696Z,7.20
2023-02-21T20:54:22.050Z,7.20
2023-02-21T20:56:54.766Z,7.20
2023-02-21T20:59:27.951Z,7.20
2023-02-21T21:01:55.165Z,7.00
2023-02-21T21:04:29.226Z,7.00
2023-02-21T21:07:01.591Z,6.90
2023-02-21T21:09:28.890Z,6.80
2023-02-21T21:12:02.488Z,6.80
2023-02-21T21:14:31.169Z,6.80
2023-02-21T21:16:59.715Z,6.70
2023-02-21T21:19:27.946Z,6.70
2023-02-21T21:21:54.580Z,6.70
2023-02-21T21:24:21.531Z,6.60
2023-02-21T21:26:58.509Z,6.60
2023-02-21T21:29:25.408Z,6.60
2023-02-21T21:31:54.531Z,6.60
2023-02-21T21:34:23.357Z,6.60
2023-02-21T21:36:52.018Z,6.40
2023-02-21T21:39:23.248Z,6.40
2023-02-21T21:42:05.229Z,6.40
2023-02-21T21:44:32.576Z,6.30
2023-02-21T21:47:00.944Z,6.20
2023-02-21T21:49:33.449Z,6.20
2023-02-21T21:52:00.968Z,6.20
2023-02-21T21:54:30.320Z,6.20
2023-02-21T21:56:58.826Z,6.20
2023-02-21T21:59:26.829Z,6.20
2023-02-21T22:01:54.015Z,6.10
2023-02-21T22:04:22.053Z,6.10
2023-02-21T22:06:50.071Z,6.10
2023-02-21T22:09:16.741Z,6.10
2023-02-21T22:11:46.533Z,6.10
2023-02-21T22:14:16.932Z,6.00
2023-02-21T22:16:45.510Z,6.10
2023-02-21T22:19:12.139Z,6.00
2023-02-21T22:21:38.737Z,6.00
2023-02-21T22:24:07.961Z,5.90
2023-02-21T22:26:34.560Z,5.90
2023-02-21T22:29:05.925Z,5.90
2023-02-21T22:31:33.627Z,5.80
2023-02-21T22:34:02.161Z,5.80
2023-02-21T22:36:31.142Z,5.80
2023-02-21T22:38:58.008Z,5.80
2023-02-21T22:41:27.840Z,5.80
2023-02-21T22:43:55.524Z,5.70
2023-02-21T22:46:24.292Z,5.70
2023-02-21T22:48:50.965Z,5.60
2023-02-21T22:51:19.429Z,5.60
2023-02-21T22:53:51.661Z,5.60
2023-02-21T22:56:23.527Z,5.50
2023-02-21T22:58:51.406Z,5.60
2023-02-21T23:01:20.881Z,5.50
2023-02-21T23:03:48.169Z,5.40
2023-02-21T23:06:15.027Z,5.40
2023-02-21T23:08:46.362Z,5.40
2023-02-21T23:11:18.699Z,5.40
2023-02-21T23:13:46.449Z,5.40
2023-02-21T23:16:19.881Z,5.40
2023-02-21T23:18:48.164Z,5.30
2023-02-21T23:21:22.784Z,5.30
2023-02-21T23:23:50.384Z,5.30
2023-02-21T23:26:21.369Z,5.30
2023-02-21T23:28:51.767Z,5.30
2023-02-21T23:31:19.781Z,5.20
2023-02-21T23:33:48.708Z,5.20
2023-02-21T23:36:22.578Z,5.10
2023-02-21T23:38:51.113Z,5.10
2023-02-21T23:41:18.384Z,5.00
2023-02-21T23:43:48.436Z,5.00
2023-02-21T23:46:23.893Z,4.90
2023-02-21T23:48:53.543Z,4.90
2023-02-21T23:51:22.233Z,4.70
2023-02-21T23:53:48.914Z,4.70
2023-02-21T23:56:15.836Z,4.70
2023-02-21T23:58:45.441Z,4.60
